createdAt,value
2023-05-14T00:00:44.789Z,15.43
2023-05-14T00:03:11.704Z,15.45
2023-05-14T00:05:38.354Z,15.42
2023-05-14T00:08:05.029Z,15.41
2023-05-14T00:10:31.703Z,15.32
2023-05-14T00:12:58.096Z,15.30
2023-05-14T00:15:24.668Z,15.26
2023-05-14T00:17:51.152Z,15.26
2023-05-14T00:20:17.610Z,15.16
2023-05-14T00:22:44.239Z,15.14
2023-05-14T00:25:10.896Z,15.11
2023-05-14T00:27:39.845Z,15.11
2023-05-14T00:30:06.947Z,15.10
2023-05-14T00:32:33.498Z,15.10
2023-05-14T00:34:59.994Z,15.07
2023-05-14T00:37:26.455Z,15.10
2023-05-14T00:39:52.898Z,15.03
2023-05-14T00:42:19.354Z,15.00
2023-05-14T00:44:45.758Z,15.04
2023-05-14T00:47:12.358Z,14.98
2023-05-14T00:49:40.778Z,14.98
2023-05-14T00:52:07.622Z,14.96
2023-05-14T00:54:35.317Z,14.90
2023-05-14T00:57:02.107Z,14.88
2023-05-14T00:59:28.668Z,14.87
2023-05-14T01:01:55.149Z,14.83
2023-05-14T01:04:21.614Z,14.81
2023-05-14T01:07:07.744Z,14.75
2023-05-14T01:09:45.552Z,14.77
2023-05-14T01:12:44.153Z,14.78
2023-05-14T01:15:22.194Z,14.74
2023-05-14T01:17:54.006Z,14.70
2023-05-14T01:20:20.927Z,14.73
2023-05-14T01:22:47.356Z,14.73
2023-05-14T01:25:13.723Z,14.72
2023-05-14T01:27:45.571Z,14.73
2023-05-14T01:30:25.229Z,14.71
2023-05-14T01:32:54.814Z,14.73
2023-05-14T01:35:24.171Z,14.71
2023-05-14T01:37:51.332Z,14.70
2023-05-14T01:40:17.711Z,14.68
2023-05-14T01:42:44.543Z,14.60
2023-05-14T01:45:11.113Z,14.64
2023-05-14T01:47:37.614Z,14.64
2023-05-14T01:50:04.209Z,14.59
2023-05-14T01:52:30.629Z,14.59
2023-05-14T01:54:58.326Z,14.60
2023-05-14T01:57:24.709Z,14.60
2023-05-14T01:59:51.131Z,14.52
2023-05-14T02:02:17.530Z,14.50
2023-05-14T02:04:43.996Z,14.50
2023-05-14T02:07:10.369Z,14.51
2023-05-14T02:09:36.741Z,14.54
2023-05-14T02:12:03.145Z,14.52
2023-05-14T02:14:29.609Z,14.48
2023-05-14T02:16:56.205Z,14.48
2023-05-14T02:19:22.634Z,14.47
2023-05-14T02:21:49.082Z,14.46
2023-05-14T02:24:15.560Z,14.47
2023-05-14T02:26:42.334Z,14.49
2023-05-14T02:29:08.858Z,14.49
2023-05-14T02:31:35.464Z,14.45
2023-05-14T02:34:02.788Z,14.45
2023-05-14T02:36:29.235Z,14.44
2023-05-14T02:38:55.629Z,14.45
2023-05-14T02:41:22.043Z,14.44
2023-05-14T02:43:48.405Z,14.42
2023-05-14T02:46:14.881Z,14.40
2023-05-14T02:48:41.317Z,14.38
2023-05-14T02:51:07.963Z,14.35
2023-05-14T02:53:34.400Z,14.33
2023-05-14T02:56:00.854Z,14.29
2023-05-14T02:58:28.279Z,14.29
2023-05-14T03:00:54.989Z,14.29
2023-05-14T03:03:21.784Z,14.25
2023-05-14T03:05:48.625Z,14.23
2023-05-14T03:08:15.061Z,14.20
2023-05-14T03:10:41.478Z,14.20
2023-05-14T03:13:07.941Z,14.18
2023-05-14T03:15:34.512Z,14.17
2023-05-14T03:18:00.915Z,14.17
2023-05-14T03:20:27.318Z,14.16
2023-05-14T03:22:54.477Z,14.14
2023-05-14T03:25:20.837Z,14.15
2023-05-14T03:27:47.317Z,14.14
2023-05-14T03:30:13.813Z,14.16
2023-05-14T03:32:40.893Z,14.18
2023-05-14T03:35:07.925Z,14.13
2023-05-14T03:37:34.296Z,14.13
2023-05-14T03:40:00.782Z,14.13
2023-05-14T03:42:27.169Z,14.14
2023-05-14T03:44:53.676Z,14.12
2023-05-14T03:47:20.174Z,14.11
2023-05-14T03:49:46.550Z,14.14
2023-05-14T03:52:12.985Z,14.13
2023-05-14T03:54:41.174Z,14.13
2023-05-14T03:57:07.577Z,14.11
2023-05-14T03:59:33.937Z,14.08
2023-05-14T04:02:00.400Z,14.07
2023-05-14T04:04:26.967Z,14.07
2023-05-14T04:06:53.417Z,14.02
2023-05-14T04:09:19.785Z,13.98
2023-05-14T04:11:46.205Z,13.97
2023-05-14T04:14:12.840Z,13.97
2023-05-14T04:16:39.330Z,13.95
2023-05-14T04:19:05.999Z,13.97
2023-05-14T04:21:32.522Z,13.97
2023-05-14T04:23:58.915Z,13.98
2023-05-14T04:26:25.401Z,14.01
2023-05-14T04:28:52.114Z,14.00
2023-05-14T04:31:18.533Z,14.06
2023-05-14T04:33:44.977Z,14.08
2023-05-14T04:36:11.448Z,14.09
2023-05-14T04:38:37.872Z,14.12
2023-05-14T04:41:04.373Z,14.16
2023-05-14T04:43:30.798Z,14.18
2023-05-14T04:45:57.207Z,14.18
2023-05-14T04:48:23.638Z,14.17
2023-05-14T04:50:50.025Z,14.16
2023-05-14T04:53:16.392Z,14.12
2023-05-14T04:55:42.786Z,14.15
2023-05-14T04:58:09.160Z,14.17
2023-05-14T05:00:35.607Z,14.20
2023-05-14T05:03:02.032Z,14.22
2023-05-14T05:05:28.646Z,14.23
2023-05-14T05:07:55.440Z,14.29
2023-05-14T05:10:22.105Z,14.32
2023-05-14T05:12:48.627Z,14.38
2023-05-14T05:15:15.052Z,14.43
2023-05-14T05:17:41.441Z,14.46
2023-05-14T05:20:09.794Z,14.53
2023-05-14T05:22:36.691Z,14.60
2023-05-14T05:25:06.227Z,14.64
2023-05-14T05:27:35.461Z,14.67
2023-05-14T05:30:02.335Z,14.68
2023-05-14T05:32:28.842Z,14.67
2023-05-14T05:34:55.384Z,14.66
2023-05-14T05:37:21.763Z,14.68
2023-05-14T05:39:48.297Z,14.66
2023-05-14T05:42:14.854Z,14.71
2023-05-14T05:44:41.252Z,14.73
2023-05-14T05:47:07.663Z,14.68
2023-05-14T05:49:34.077Z,14.68
2023-05-14T05:52:00.502Z,14.70
2023-05-14T05:54:27.131Z,14.72
2023-05-14T05:56:53.525Z,14.73
2023-05-14T05:59:20.014Z,14.81
2023-05-14T06:01:46.429Z,14.89
2023-05-14T06:04:12.857Z,15.02
2023-05-14T06:06:39.211Z,15.13
2023-05-14T06:09:07.028Z,15.20
2023-05-14T06:11:33.623Z,15.23
2023-05-14T06:14:00.143Z,15.29
2023-05-14T06:16:26.594Z,15.28
2023-05-14T06:18:54.359Z,15.28
2023-05-14T06:21:20.768Z,15.34
2023-05-14T06:23:47.229Z,15.34
2023-05-14T06:26:13.641Z,15.30
2023-05-14T06:28:40.005Z,15.28
2023-05-14T06:31:06.415Z,15.21
2023-05-14T06:33:32.836Z,15.20
2023-05-14T06:36:00.839Z,15.14
2023-05-14T06:38:27.249Z,15.07
2023-05-14T06:40:53.639Z,15.09
2023-05-14T06:43:20.785Z,15.06
2023-05-14T06:45:51.071Z,15.17
2023-05-14T06:48:21.215Z,15.21
2023-05-14T06:50:48.711Z,15.22
2023-05-14T06:53:15.332Z,15.28
2023-05-14T06:55:41.917Z,15.24
2023-05-14T06:58:08.644Z,15.31
2023-05-14T07:00:35.223Z,15.35
2023-05-14T07:03:01.626Z,15.42
2023-05-14T07:05:28.049Z,15.41
2023-05-14T07:07:54.464Z,15.46
2023-05-14T07:10:21.061Z,15.40
2023-05-14T07:12:47.849Z,15.47
2023-05-14T07:15:14.300Z,15.48
2023-05-14T07:17:40.967Z,15.47
2023-05-14T07:20:07.903Z,15.48
2023-05-14T07:22:34.356Z,15.54
2023-05-14T07:25:00.798Z,15.57
2023-05-14T07:27:27.181Z,15.63
2023-05-14T07:29:53.543Z,15.56
2023-05-14T07:32:20.094Z,15.61
2023-05-14T07:34:46.545Z,15.70
2023-05-14T07:37:12.968Z,15.78
2023-05-14T07:39:41.542Z,15.87
2023-05-14T07:42:07.891Z,15.89
2023-05-14T07:44:34.242Z,15.98
2023-05-14T07:47:00.758Z,16.01
2023-05-14T07:49:27.231Z,16.04
2023-05-14T07:51:53.603Z,15.97
2023-05-14T07:54:20.006Z,15.99
2023-05-14T07:56:46.428Z,16.07
2023-05-14T07:59:12.856Z,16.08
2023-05-14T08:01:39.578Z,16.12
2023-05-14T08:04:06.165Z,16.19
2023-05-14T08:06:32.710Z,16.32
2023-05-14T08:08:59.206Z,16.36
2023-05-14T08:11:26.216Z,16.46
2023-05-14T08:13:52.799Z,16.54
2023-05-14T08:16:19.246Z,16.60
2023-05-14T08:18:45.738Z,16.61
2023-05-14T08:21:12.180Z,16.73
2023-05-14T08:23:38.594Z,16.77
2023-05-14T08:26:05.050Z,16.89
2023-05-14T08:28:31.424Z,17.15
2023-05-14T08:30:57.905Z,17.28
2023-05-14T08:33:24.415Z,17.33
2023-05-14T08:35:52.975Z,17.50
2023-05-14T08:38:19.387Z,17.90
2023-05-14T08:40:52.637Z,18.16
2023-05-14T08:43:20.679Z,18.32
2023-05-14T08:45:49.576Z,18.22
2023-05-14T08:48:18.060Z,18.39
2023-05-14T08:50:44.566Z,18.44
2023-05-14T08:53:10.967Z,18.51
2023-05-14T08:55:37.704Z,18.74
2023-05-14T08:58:04.217Z,19.12
2023-05-14T09:00:30.821Z,19.35
2023-05-14T09:02:57.594Z,19.79
2023-05-14T09:05:24.429Z,20.18
2023-05-14T09:07:50.856Z,20.63
2023-05-14T09:10:17.573Z,20.68
2023-05-14T09:12:44.043Z,20.79
2023-05-14T09:15:10.963Z,20.89
2023-05-14T09:17:37.548Z,21.12
2023-05-14T09:20:04.453Z,21.11
2023-05-14T09:22:33.439Z,21.21
2023-05-14T09:25:11.926Z,21.25
2023-05-14T09:27:38.708Z,21.28
2023-05-14T09:30:10.620Z,21.43
2023-05-14T09:32:41.249Z,21.09
2023-05-14T09:35:17.830Z,20.90
2023-05-14T09:37:46.358Z,20.93
2023-05-14T09:40:13.881Z,20.99
2023-05-14T09:42:40.529Z,21.29
2023-05-14T09:45:08.582Z,21.38
2023-05-14T09:47:35.802Z,21.45
2023-05-14T09:50:02.858Z,21.43
2023-05-14T09:52:29.396Z,21.28
2023-05-14T09:54:55.942Z,21.39
2023-05-14T09:57:22.446Z,21.40
2023-05-14T09:59:48.913Z,21.48
2023-05-14T10:02:29.340Z,21.31
2023-05-14T10:04:58.791Z,21.31
2023-05-14T10:07:29.593Z,21.36
2023-05-14T10:09:59.982Z,21.38
2023-05-14T10:12:29.689Z,21.58
2023-05-14T10:14:57.161Z,21.68
2023-05-14T10:17:25.094Z,21.74
2023-05-14T10:19:53.984Z,21.44
2023-05-14T10:22:23.373Z,21.19
2023-05-14T10:24:52.478Z,21.22
2023-05-14T10:27:21.449Z,21.20
2023-05-14T10:29:55.411Z,21.24
2023-05-14T10:32:25.070Z,21.25
2023-05-14T10:34:52.488Z,21.38
2023-05-14T10:37:21.532Z,21.53
2023-05-14T10:39:51.668Z,21.64
2023-05-14T10:42:19.029Z,21.72
2023-05-14T10:44:51.406Z,21.63
2023-05-14T10:47:18.417Z,21.48
2023-05-14T10:49:45.911Z,21.34
2023-05-14T10:52:12.448Z,21.41
2023-05-14T10:54:38.959Z,21.52
2023-05-14T10:57:11.434Z,21.47
2023-05-14T10:59:41.700Z,21.54
2023-05-14T11:02:19.342Z,21.54
2023-05-14T11:05:05.009Z,21.52
2023-05-14T11:07:33.385Z,21.48
2023-05-14T11:10:05.030Z,21.47
2023-05-14T11:12:31.614Z,21.38
2023-05-14T11:14:59.158Z,21.32
2023-05-14T11:17:27.077Z,21.32
2023-05-14T11:19:53.889Z,21.50
2023-05-14T11:22:20.829Z,21.70
2023-05-14T11:24:47.320Z,21.87
2023-05-14T11:27:13.807Z,21.83
2023-05-14T11:29:43.785Z,21.72
2023-05-14T11:32:10.420Z,21.81
2023-05-14T11:34:37.361Z,22.06
2023-05-14T11:37:05.106Z,22.12
2023-05-14T11:39:32.938Z,22.27
2023-05-14T11:42:02.354Z,22.35
2023-05-14T11:44:28.754Z,22.31
2023-05-14T11:46:58.982Z,22.42
2023-05-14T11:49:25.794Z,22.68
2023-05-14T11:52:02.114Z,22.92
2023-05-14T11:54:29.421Z,23.00
2023-05-14T11:56:56.654Z,22.89
2023-05-14T11:59:27.688Z,22.89
2023-05-14T12:01:55.194Z,22.87
2023-05-14T12:04:22.821Z,22.80
2023-05-14T12:06:50.225Z,22.86
2023-05-14T12:09:17.980Z,22.85
2023-05-14T12:11:46.378Z,23.07
2023-05-14T12:14:20.830Z,23.41
2023-05-14T12:16:47.916Z,23.69
2023-05-14T12:19:15.507Z,23.84
2023-05-14T12:21:46.870Z,23.95
2023-05-14T12:24:15.595Z,24.02
2023-05-14T12:26:46.875Z,24.07
2023-05-14T12:29:14.622Z,24.01
2023-05-14T12:31:48.563Z,24.10
2023-05-14T12:34:15.749Z,24.24
2023-05-14T12:36:42.767Z,24.21
2023-05-14T12:39:09.980Z,24.01
2023-05-14T12:41:36.905Z,23.96
2023-05-14T12:44:06.308Z,23.76
2023-05-14T12:46:34.018Z,23.82
2023-05-14T12:49:00.566Z,23.76
2023-05-14T12:51:27.002Z,23.72
2023-05-14T12:53:54.202Z,23.74
2023-05-14T12:56:21.908Z,23.62
2023-05-14T12:58:48.309Z,23.46
2023-05-14T13:01:14.739Z,23.27
2023-05-14T13:03:41.549Z,23.22
2023-05-14T13:06:07.994Z,23.11
2023-05-14T13:08:35.129Z,23.12
2023-05-14T13:11:01.490Z,23.18
2023-05-14T13:13:27.911Z,23.21
2023-05-14T13:15:54.271Z,23.26
2023-05-14T13:18:20.843Z,23.18
2023-05-14T13:20:47.589Z,23.17
2023-05-14T13:23:14.538Z,23.04
2023-05-14T13:25:41.002Z,22.98
2023-05-14T13:28:08.278Z,22.83
2023-05-14T13:30:34.679Z,22.79
2023-05-14T13:33:01.146Z,22.86
2023-05-14T13:35:27.601Z,22.90
2023-05-14T13:37:53.997Z,23.05
2023-05-14T13:40:20.385Z,23.07
2023-05-14T13:42:46.749Z,23.11
2023-05-14T13:45:13.146Z,23.06
2023-05-14T13:47:40.283Z,23.21
2023-05-14T13:50:07.274Z,23.33
2023-05-14T13:52:33.649Z,23.47
2023-05-14T13:55:00.046Z,23.57
2023-05-14T13:57:26.918Z,23.57
2023-05-14T13:59:53.336Z,23.53
2023-05-14T14:02:19.745Z,23.38
2023-05-14T14:04:46.158Z,23.31
2023-05-14T14:07:12.657Z,23.36
2023-05-14T14:09:39.105Z,23.46
2023-05-14T14:12:06.246Z,23.56
2023-05-14T14:14:32.724Z,23.53
2023-05-14T14:16:59.136Z,23.46
2023-05-14T14:19:25.536Z,23.37
2023-05-14T14:21:51.982Z,23.29
2023-05-14T14:24:18.368Z,23.29
2023-05-14T14:26:44.789Z,23.30
2023-05-14T14:29:11.242Z,23.19
2023-05-14T14:31:37.796Z,23.09
2023-05-14T14:34:04.178Z,23.16
2023-05-14T14:36:31.650Z,23.18
2023-05-14T14:38:58.134Z,23.24
2023-05-14T14:41:24.663Z,23.30
2023-05-14T14:43:51.077Z,23.36
2023-05-14T14:46:17.562Z,23.30
2023-05-14T14:48:43.983Z,23.20
2023-05-14T14:51:10.400Z,23.09
2023-05-14T14:53:37.292Z,23.03
2023-05-14T14:56:04.093Z,23.08
2023-05-14T14:58:31.102Z,23.24
2023-05-14T15:00:58.428Z,23.30
2023-05-14T15:03:25.661Z,23.24
2023-05-14T15:05:53.379Z,23.23
2023-05-14T15:08:20.818Z,23.18
2023-05-14T15:10:47.272Z,23.08
2023-05-14T15:13:13.703Z,23.03
2023-05-14T15:15:40.150Z,23.06
2023-05-14T15:18:06.585Z,23.09
2023-05-14T15:20:33.044Z,23.15
2023-05-14T15:22:59.573Z,23.17
2023-05-14T15:25:26.599Z,23.20
2023-05-14T15:27:53.104Z,23.22
2023-05-14T15:30:19.635Z,23.23
2023-05-14T15:32:46.479Z,23.26
2023-05-14T15:35:13.101Z,23.16
2023-05-14T15:37:41.652Z,22.99
2023-05-14T15:40:09.133Z,23.04
2023-05-14T15:42:41.977Z,23.00
2023-05-14T15:45:10.235Z,22.94
2023-05-14T15:47:36.681Z,22.90
2023-05-14T15:50:03.808Z,22.93
2023-05-14T15:52:30.342Z,22.81
2023-05-14T15:54:57.406Z,22.68
2023-05-14T15:57:24.065Z,22.57
2023-05-14T15:59:51.383Z,22.49
2023-05-14T16:02:17.874Z,22.53
2023-05-14T16:04:45.140Z,22.57
2023-05-14T16:07:12.098Z,22.42
2023-05-14T16:09:38.990Z,22.18
2023-05-14T16:12:06.625Z,21.87
2023-05-14T16:14:34.461Z,21.78
2023-05-14T16:17:01.983Z,21.80
2023-05-14T16:19:28.603Z,21.59
2023-05-14T16:21:55.057Z,21.52
2023-05-14T16:24:21.575Z,21.41
2023-05-14T16:26:47.993Z,21.44
2023-05-14T16:29:14.438Z,21.38
2023-05-14T16:31:40.858Z,21.30
2023-05-14T16:34:07.262Z,21.24
2023-05-14T16:36:33.646Z,21.13
2023-05-14T16:39:07.361Z,21.05
2023-05-14T16:41:35.303Z,21.04
2023-05-14T16:44:01.765Z,20.92
2023-05-14T16:46:29.369Z,20.82
2023-05-14T16:48:56.227Z,20.66
2023-05-14T16:51:22.698Z,20.62
2023-05-14T16:53:49.134Z,20.56
2023-05-14T16:56:15.586Z,20.36
2023-05-14T16:58:42.011Z,20.25
2023-05-14T17:01:09.916Z,20.12
2023-05-14T17:03:36.823Z,20.10
2023-05-14T17:06:04.550Z,19.90
2023-05-14T17:08:33.495Z,19.72
2023-05-14T17:11:00.175Z,19.58
2023-05-14T17:13:26.658Z,19.58
2023-05-14T17:15:53.153Z,19.45
2023-05-14T17:18:19.674Z,19.39
2023-05-14T17:20:46.261Z,19.33
2023-05-14T17:23:12.846Z,19.19
2023-05-14T17:25:39.264Z,19.09
2023-05-14T17:28:05.945Z,19.09
2023-05-14T17:30:32.405Z,19.09
2023-05-14T17:32:58.960Z,19.07
2023-05-14T17:35:25.950Z,18.92
2023-05-14T17:37:52.521Z,18.74
2023-05-14T17:40:18.906Z,18.65
2023-05-14T17:42:45.477Z,18.61
2023-05-14T17:45:13.187Z,18.68
2023-05-14T17:47:39.808Z,18.68
2023-05-14T17:50:07.145Z,18.68
2023-05-14T17:52:33.536Z,18.67
2023-05-14T17:54:59.946Z,18.56
2023-05-14T17:57:27.660Z,18.52
2023-05-14T17:59:54.318Z,18.46
2023-05-14T18:02:20.768Z,18.29
2023-05-14T18:04:47.244Z,18.23
2023-05-14T18:07:13.780Z,18.25
2023-05-14T18:09:40.514Z,18.26
2023-05-14T18:12:07.425Z,18.19
2023-05-14T18:14:33.831Z,18.18
2023-05-14T18:17:00.272Z,18.10
2023-05-14T18:19:27.010Z,18.02
2023-05-14T18:21:55.441Z,17.96
2023-05-14T18:24:22.334Z,17.90
2023-05-14T18:26:48.815Z,17.85
2023-05-14T18:29:15.298Z,17.79
2023-05-14T18:31:41.708Z,17.79
2023-05-14T18:34:08.200Z,17.65
2023-05-14T18:36:34.680Z,17.59
2023-05-14T18:39:01.064Z,17.54
2023-05-14T18:41:27.471Z,17.53
2023-05-14T18:43:53.816Z,17.50
2023-05-14T18:46:20.257Z,17.45
2023-05-14T18:48:46.685Z,17.45
2023-05-14T18:51:13.068Z,17.41
2023-05-14T18:53:39.460Z,17.35
2023-05-14T18:56:05.914Z,17.34
2023-05-14T18:58:33.679Z,17.26
2023-05-14T19:01:00.219Z,17.21
2023-05-14T19:03:26.767Z,17.09
2023-05-14T19:05:53.754Z,16.81
2023-05-14T19:08:20.399Z,16.69
2023-05-14T19:10:47.094Z,16.55
2023-05-14T19:13:13.515Z,16.51
2023-05-14T19:15:39.948Z,16.43
2023-05-14T19:18:06.716Z,16.38
2023-05-14T19:20:33.112Z,16.35
2023-05-14T19:22:59.458Z,16.28
2023-05-14T19:25:25.985Z,16.22
2023-05-14T19:27:55.192Z,16.25
2023-05-14T19:30:23.278Z,16.14
2023-05-14T19:32:49.843Z,16.15
2023-05-14T19:35:16.568Z,16.15
2023-05-14T19:37:42.996Z,16.16
2023-05-14T19:40:09.664Z,16.15
2023-05-14T19:42:36.097Z,16.06
2023-05-14T19:45:03.690Z,16.02
2023-05-14T19:47:30.154Z,16.04
2023-05-14T19:49:56.605Z,16.02
2023-05-14T19:52:23.005Z,16.06
2023-05-14T19:54:49.441Z,16.06
2023-05-14T19:57:15.830Z,16.04
2023-05-14T19:59:42.304Z,16.02
2023-05-14T20:02:09.089Z,16.00
2023-05-14T20:04:35.591Z,16.03
2023-05-14T20:07:01.989Z,16.00
2023-05-14T20:09:28.422Z,15.95
2023-05-14T20:11:54.839Z,15.95
2023-05-14T20:14:21.373Z,15.95
2023-05-14T20:16:48.864Z,15.96
2023-05-14T20:19:16.292Z,15.94
2023-05-14T20:21:42.800Z,15.96
2023-05-14T20:24:09.161Z,15.94
2023-05-14T20:26:35.751Z,15.94
2023-05-14T20:29:02.114Z,15.95
2023-05-14T20:31:28.675Z,15.94
2023-05-14T20:33:55.335Z,15.91
2023-05-14T20:36:22.187Z,15.92
2023-05-14T20:38:48.598Z,15.93
2023-05-14T20:41:15.077Z,15.93
2023-05-14T20:43:41.446Z,15.93
2023-05-14T20:46:07.913Z,15.93
2023-05-14T20:48:34.418Z,15.93
2023-05-14T20:51:01.621Z,15.92
2023-05-14T20:53:28.674Z,15.92
2023-05-14T20:55:56.026Z,15.90
2023-05-14T20:58:22.475Z,15.90
2023-05-14T21:00:48.876Z,15.88
2023-05-14T21:03:15.427Z,15.87
2023-05-14T21:05:43.530Z,15.84
2023-05-14T21:08:10.026Z,15.83
2023-05-14T21:10:36.408Z,15.82
2023-05-14T21:13:02.852Z,15.79
2023-05-14T21:15:30.623Z,15.73
2023-05-14T21:17:57.084Z,15.70
2023-05-14T21:20:23.480Z,15.67
2023-05-14T21:22:49.840Z,15.65
2023-05-14T21:25:16.256Z,15.65
2023-05-14T21:27:42.951Z,15.66
2023-05-14T21:30:09.891Z,15.69
2023-05-14T21:32:36.327Z,15.71
2023-05-14T21:35:03.058Z,15.67
2023-05-14T21:37:29.450Z,15.66
2023-05-14T21:39:55.847Z,15.62
2023-05-14T21:42:22.255Z,15.63
2023-05-14T21:44:48.626Z,15.61
2023-05-14T21:47:16.004Z,15.60
2023-05-14T21:49:43.053Z,15.60
2023-05-14T21:52:09.513Z,15.58
2023-05-14T21:54:35.921Z,15.57
2023-05-14T21:57:02.330Z,15.55
2023-05-14T21:59:28.695Z,15.52
2023-05-14T22:02:06.759Z,15.50
2023-05-14T22:04:34.256Z,15.44
2023-05-14T22:07:01.420Z,15.40
2023-05-14T22:09:27.787Z,15.40
2023-05-14T22:11:54.159Z,15.41
2023-05-14T22:14:20.684Z,15.42
2023-05-14T22:16:47.292Z,15.42
2023-05-14T22:19:16.415Z,15.40
2023-05-14T22:21:42.897Z,15.40
2023-05-14T22:24:09.257Z,15.39
2023-05-14T22:26:35.635Z,15.40
2023-05-14T22:29:02.002Z,15.40
2023-05-14T22:31:28.414Z,15.40
2023-05-14T22:33:54.860Z,15.42
2023-05-14T22:36:21.294Z,15.45
2023-05-14T22:38:47.860Z,15.44
2023-05-14T22:41:14.347Z,15.43
2023-05-14T22:43:40.837Z,15.42
2023-05-14T22:46:07.322Z,15.40
2023-05-14T22:48:33.753Z,15.37
2023-05-14T22:51:00.239Z,15.37
2023-05-14T22:53:27.507Z,15.35
2023-05-14T22:55:53.938Z,15.34
2023-05-14T22:58:20.345Z,15.34
2023-05-14T23:00:46.965Z,15.33
2023-05-14T23:03:13.347Z,15.34
2023-05-14T23:05:39.830Z,15.36
2023-05-14T23:08:06.443Z,15.35
2023-05-14T23:10:33.664Z,15.32
2023-05-14T23:13:00.044Z,15.31
2023-05-14T23:15:27.122Z,15.31
2023-05-14T23:17:53.882Z,15.32
2023-05-14T23:20:20.309Z,15.30
2023-05-14T23:22:46.757Z,15.29
2023-05-14T23:25:13.286Z,15.24
2023-05-14T23:27:39.672Z,15.23
2023-05-14T23:30:06.839Z,15.20
2023-05-14T23:32:33.270Z,15.17
2023-05-14T23:34:59.755Z,15.15
2023-05-14T23:37:26.234Z,15.13
2023-05-14T23:39:53.162Z,15.10
2023-05-14T23:42:20.130Z,15.11
2023-05-14T23:44:46.578Z,15.11
2023-05-14T23:47:13.084Z,15.05
2023-05-14T23:49:40.672Z,15.03
2023-05-14T23:52:07.301Z,15.05
2023-05-14T23:54:33.719Z,15.02
2023-05-14T23:57:00.165Z,15.02
2023-05-14T23:59:26.666Z,15.00
